Benet Lake, WI (53102)

7:05 AM CDT on October 22, 2019 (GMT -0500)
Pikeville | | Change Station
Active Advisory: Wind Advisory

Elev 787 ft 42.53 °N, 88.03 °W | Updated 30 seconds ago

Overcast
Overcast
47.7 °F
Feels Like 46 °F
N
4.3
Wind Variable Wind from SW
Gusts 7.6 mph

Today
High -- | Low -- °F
--% Chance of Precip.
Yesterday
High -- | Low -- °F
Precip. -- in
Pressure 29.43 in
Visibility 10.0 miles
Clouds Scattered Clouds 2500 ft
Mostly Cloudy 3500 ft
Mostly Cloudy 4600 ft
Windchill 46 °F
Dew Point 43 °F
Humidity 85%
Rainfall 0.01 in
Snow Depth Not available.
7:13 AM 5:59 PM
Last Quarter, 39% visible
METAR KUGN 221155Z 22024G36KT 10SM SCT025 BKN035 BKN046 09/04 A2943 RMK AO2 PK WND 23039/1135 SLP966 60000 70017 T00890039 10106 20089 53002
Pressure 29.43 in
Visibility 10.0 miles
Clouds Scattered Clouds 2500 ft
Mostly Cloudy 3500 ft
Mostly Cloudy 4600 ft
Windchill 46 °F
Dew Point 43 °F
Humidity 85%
Rainfall 0.01 in
Snow Depth Not available.
7:13 AM 5:59 PM
Last Quarter, 39% visible
METAR KUGN 221155Z 22024G36KT 10SM SCT025 BKN035 BKN046 09/04 A2943 RMK AO2 PK WND 23039/1135 SLP966 60000 70017 T00890039 10106 20089 53002

Get Your Daily Forecast Email!

Thanks for signing up!

Be on the lookout for a verification email in your inbox.

You'll start receiving severe weather alerts in your inbox..

×

10-Day Weather Forecast

Almanac

Astronomy

Oct. 22, 2019 Rise Set
Actual Time
Civil Twilight
Nautical Twilight
Astronomical Twilight
Moon
Length of Visible Light
Length of Day
Tomorrow will be .
, % of the Moon is Illuminated

Today's Extremes

State Highs State Lows

Community

WunderPhotos

Category 6

Welcome to Category 6. This is the collective home for Weather Underground's featured writeups by Dr. Jeff Masters (right), Bob Henson (left), Chris Burt, and other regular contributors.

Nearby

Air Quality

  Air Quality AQ Index Pollutant
Not available.

Snow Depth

Station Depth Elevation

Earthquake Activity

City Distance Mag. Time & Date
Minimum magnitude displayed is 2.5.

Coastal Water Temperatures

Place Temperature

Stations

Nearby Weather Stations

Station Location Temp. Windchill Dew Point Humidity Wind Precip. Elev Updated Type
                   

Watches & Warnings

Wind Advisory
Issued: 2:18 AM CDT Oct. 22, 2019 – National Weather Service

... Wind Advisory now in effect until 7 PM CDT this evening...

The Wind Advisory is now in effect until 7 PM CDT this evening.

* Timing... through early evening.

* Winds... southwest at 20 to 25 mph with gusts of 40 to 45 mph.

* Impacts... motorists should be alert for sudden gusts of wind,
particularly in high profile vehicles and on north to south
running highways.

Precautionary/preparedness actions...

A Wind Advisory means that winds of 45 mph are expected. Winds
this strong can make driving difficult... especially for high
profile vehicles. Use extra caution.


Ddv